createdAt,value
2022-11-14T00:00:43.562Z,5.71
2022-11-14T00:03:29.100Z,5.87
2022-11-14T00:06:14.530Z,5.80
2022-11-14T00:09:00.535Z,5.75
2022-11-14T00:11:45.863Z,5.74
2022-11-14T00:14:32.140Z,5.67
2022-11-14T00:17:18.021Z,5.41
2022-11-14T00:20:05.323Z,5.45
2022-11-14T00:22:50.637Z,5.54
2022-11-14T00:25:35.965Z,5.59
2022-11-14T00:28:21.587Z,5.56
2022-11-14T00:31:07.020Z,5.69
2022-11-14T00:33:52.692Z,5.61
2022-11-14T00:36:38.038Z,5.71
2022-11-14T00:39:23.696Z,5.77
2022-11-14T00:42:09.234Z,5.65
2022-11-14T00:44:54.825Z,5.66
2022-11-14T00:47:40.379Z,5.59
2022-11-14T00:50:25.898Z,5.51
2022-11-14T00:53:11.598Z,5.43
2022-11-14T00:55:56.833Z,5.33
2022-11-14T00:58:42.304Z,5.31
2022-11-14T01:01:27.795Z,5.28
2022-11-14T01:04:13.348Z,5.29
2022-11-14T01:06:58.814Z,5.22
2022-11-14T01:09:44.376Z,5.14
2022-11-14T01:12:29.462Z,4.98
2022-11-14T01:15:15.077Z,4.94
2022-11-14T01:18:00.604Z,4.95
2022-11-14T01:20:47.344Z,5.03
2022-11-14T01:23:32.778Z,4.89
2022-11-14T01:26:17.920Z,4.80
2022-11-14T01:29:03.187Z,4.81
2022-11-14T01:31:48.304Z,4.78
2022-11-14T01:34:33.531Z,4.66
2022-11-14T01:37:18.527Z,4.68
2022-11-14T01:40:04.185Z,4.76
2022-11-14T01:43:17.201Z,4.77
2022-11-14T01:46:24.059Z,4.90
2022-11-14T01:49:21.949Z,5.10
2022-11-14T01:52:18.051Z,5.23
2022-11-14T01:55:07.088Z,5.35
2022-11-14T01:57:52.604Z,5.55
2022-11-14T02:00:38.381Z,5.51
2022-11-14T02:03:24.471Z,5.46
2022-11-14T02:06:13.125Z,5.35
2022-11-14T02:09:02.351Z,5.32
2022-11-14T02:11:48.201Z,5.12
2022-11-14T02:14:35.588Z,5.10
2022-11-14T02:17:30.155Z,5.01
2022-11-14T02:20:21.527Z,4.85
2022-11-14T02:23:06.764Z,4.92
2022-11-14T02:25:52.838Z,4.69
2022-11-14T02:28:38.213Z,4.78
2022-11-14T02:31:23.796Z,4.47
2022-11-14T02:34:08.982Z,4.42
2022-11-14T02:36:54.476Z,4.36
2022-11-14T02:39:39.523Z,4.34
2022-11-14T02:42:25.274Z,4.57
2022-11-14T02:45:12.570Z,4.83
2022-11-14T02:47:57.694Z,4.87
2022-11-14T02:50:43.688Z,4.84
2022-11-14T02:53:28.865Z,4.75
2022-11-14T02:56:14.077Z,4.66
2022-11-14T02:58:59.455Z,4.47
2022-11-14T03:01:44.703Z,4.36
2022-11-14T03:04:30.119Z,4.17
2022-11-14T03:07:15.720Z,4.07
2022-11-14T03:10:01.134Z,3.95
2022-11-14T03:12:46.468Z,3.83
2022-11-14T03:15:31.715Z,3.76
2022-11-14T03:18:17.135Z,3.92
2022-11-14T03:21:10.888Z,4.11
2022-11-14T03:23:56.015Z,4.17
2022-11-14T03:26:41.683Z,4.10
2022-11-14T03:29:27.023Z,4.02
2022-11-14T03:32:12.400Z,3.97
2022-11-14T03:34:59.013Z,3.85
2022-11-14T03:37:44.411Z,3.72
2022-11-14T03:40:29.720Z,3.64
2022-11-14T03:43:15.148Z,3.62
2022-11-14T03:46:02.482Z,3.56
2022-11-14T03:48:48.182Z,3.44
2022-11-14T03:51:33.898Z,3.36
2022-11-14T03:54:19.358Z,3.28
2022-11-14T03:57:04.830Z,3.18
2022-11-14T03:59:50.635Z,3.10
2022-11-14T04:02:36.384Z,3.04
2022-11-14T04:05:23.089Z,3.05
2022-11-14T04:08:08.506Z,3.02
2022-11-14T04:10:53.741Z,3.03
2022-11-14T04:13:39.048Z,3.10
2022-11-14T04:16:24.430Z,3.22
2022-11-14T04:19:10.177Z,3.23
2022-11-14T04:21:55.668Z,3.21
2022-11-14T04:24:41.031Z,3.16
2022-11-14T04:27:26.688Z,3.06
2022-11-14T04:30:12.218Z,2.99
2022-11-14T04:32:57.929Z,3.01
2022-11-14T04:35:43.371Z,3.03
2022-11-14T04:38:29.034Z,3.00
2022-11-14T04:41:14.438Z,2.89
2022-11-14T04:43:59.710Z,2.79
2022-11-14T04:46:45.283Z,2.73
2022-11-14T04:49:31.190Z,2.73
2022-11-14T04:52:16.420Z,2.65
2022-11-14T04:55:01.998Z,2.64
2022-11-14T04:57:47.249Z,2.61
2022-11-14T05:00:32.587Z,2.57
2022-11-14T05:03:18.245Z,2.54
2022-11-14T05:06:04.470Z,2.51
2022-11-14T05:08:50.018Z,2.46
2022-11-14T05:11:35.081Z,2.43
2022-11-14T05:14:20.713Z,2.44
2022-11-14T05:17:06.025Z,2.42
2022-11-14T05:19:51.677Z,2.42
2022-11-14T05:22:37.081Z,2.56
2022-11-14T05:25:23.397Z,2.68
2022-11-14T05:28:08.828Z,2.76
2022-11-14T05:31:01.127Z,2.89
2022-11-14T05:33:47.155Z,2.98
2022-11-14T05:36:32.825Z,2.96
2022-11-14T05:39:18.358Z,2.97
2022-11-14T05:42:03.745Z,2.97
2022-11-14T05:44:49.620Z,2.99
2022-11-14T05:47:34.924Z,3.07
2022-11-14T05:50:20.614Z,3.19
2022-11-14T05:53:06.124Z,3.11
2022-11-14T05:55:51.158Z,3.15
2022-11-14T05:58:37.238Z,3.20
2022-11-14T06:01:22.434Z,3.26
2022-11-14T06:04:07.582Z,3.25
2022-11-14T06:06:52.892Z,3.33
2022-11-14T06:09:38.120Z,3.30
2022-11-14T06:12:23.704Z,3.41
2022-11-14T06:15:09.642Z,3.52
2022-11-14T06:17:55.064Z,3.61
2022-11-14T06:20:40.469Z,3.70
2022-11-14T06:23:25.922Z,3.84
2022-11-14T06:26:20.716Z,3.98
2022-11-14T06:29:05.752Z,4.07
2022-11-14T06:31:50.829Z,4.21
2022-11-14T06:34:36.169Z,4.33
2022-11-14T06:37:21.435Z,4.45
2022-11-14T06:40:07.620Z,4.51
2022-11-14T06:42:55.986Z,4.58
2022-11-14T06:45:42.068Z,4.67
2022-11-14T06:48:27.647Z,4.74
2022-11-14T06:51:15.335Z,4.84
2022-11-14T06:54:00.944Z,4.98
2022-11-14T06:56:46.402Z,5.07
2022-11-14T06:59:31.641Z,5.26
2022-11-14T07:02:21.749Z,5.40
2022-11-14T07:05:07.726Z,5.55
2022-11-14T07:07:53.322Z,5.79
2022-11-14T07:10:39.457Z,5.94
2022-11-14T07:13:24.934Z,6.19
2022-11-14T07:16:09.996Z,6.30
2022-11-14T07:18:56.605Z,6.52
2022-11-14T07:21:42.170Z,6.56
2022-11-14T07:24:27.603Z,6.58
2022-11-14T07:27:13.031Z,6.61
2022-11-14T07:29:58.166Z,6.83
2022-11-14T07:32:43.419Z,6.96
2022-11-14T07:35:28.856Z,6.89
2022-11-14T07:38:14.273Z,6.97
2022-11-14T07:41:05.816Z,7.10
2022-11-14T07:43:51.787Z,7.02
2022-11-14T07:47:12.102Z,6.94
2022-11-14T07:49:57.508Z,7.16
2022-11-14T07:52:42.872Z,7.13
2022-11-14T07:55:28.150Z,7.30
2022-11-14T07:58:13.707Z,7.45
2022-11-14T08:01:02.862Z,7.48
2022-11-14T08:03:48.577Z,7.46
2022-11-14T08:07:06.896Z,7.53
2022-11-14T08:09:52.084Z,7.37
2022-11-14T08:12:39.779Z,7.45
2022-11-14T08:15:24.964Z,7.37
2022-11-14T08:18:10.468Z,7.46
2022-11-14T08:20:57.730Z,7.43
2022-11-14T08:23:45.330Z,7.40
2022-11-14T08:26:34.276Z,7.30
2022-11-14T08:29:20.396Z,7.23
2022-11-14T08:32:05.732Z,7.26
2022-11-14T08:34:50.906Z,7.20
2022-11-14T08:37:36.251Z,7.13
2022-11-14T08:40:21.552Z,7.30
2022-11-14T08:43:07.069Z,7.26
2022-11-14T08:45:52.271Z,7.06
2022-11-14T08:48:37.451Z,7.03
2022-11-14T08:51:22.765Z,7.06
2022-11-14T08:54:08.415Z,7.16
2022-11-14T08:56:53.923Z,7.20
2022-11-14T08:59:39.388Z,7.30
2022-11-14T09:02:24.711Z,7.27
2022-11-14T09:05:10.624Z,7.29
2022-11-14T09:07:56.217Z,7.28
2022-11-14T09:10:41.638Z,7.39
2022-11-14T09:13:27.811Z,7.44
2022-11-14T09:16:13.952Z,7.59
2022-11-14T09:18:59.804Z,7.79
2022-11-14T09:21:45.564Z,7.85
2022-11-14T09:24:31.612Z,7.82
2022-11-14T09:27:17.284Z,7.60
2022-11-14T09:30:02.829Z,7.57
2022-11-14T09:32:48.708Z,7.61
2022-11-14T09:35:34.411Z,7.61
2022-11-14T09:38:20.174Z,7.57
2022-11-14T09:41:45.218Z,7.53
2022-11-14T10:17:48.046Z,6.93
2022-11-14T10:20:35.406Z,7.11
2022-11-14T10:23:47.045Z,7.32
2022-11-14T10:26:38.560Z,7.38
2022-11-14T10:29:51.313Z,7.42
2022-11-14T10:32:48.636Z,7.28
2022-11-14T10:35:44.073Z,7.25
2022-11-14T10:38:36.908Z,7.24
2022-11-14T10:41:49.885Z,7.16
2022-11-14T10:44:38.406Z,7.25
2022-11-14T10:47:25.698Z,7.30
2022-11-14T10:50:23.266Z,7.30
2022-11-14T10:53:23.822Z,7.33
2022-11-14T10:56:12.964Z,7.36
2022-11-14T10:58:58.432Z,7.21
2022-11-14T11:01:46.571Z,7.15
2022-11-14T11:04:35.514Z,7.30
2022-11-14T11:07:45.093Z,7.08
2022-11-14T11:10:50.118Z,7.20
2022-11-14T11:13:36.830Z,7.21
2022-11-14T11:16:24.529Z,7.19
2022-11-14T11:19:27.263Z,7.20
2022-11-14T11:22:39.188Z,7.23
2022-11-14T11:25:27.880Z,7.27
2022-11-14T11:28:22.041Z,7.28
2022-11-14T11:31:09.854Z,7.29
2022-11-14T11:33:55.607Z,7.21
2022-11-14T11:36:47.416Z,7.18
2022-11-14T11:39:39.655Z,7.17
2022-11-14T11:43:23.777Z,7.30
2022-11-14T11:45:43.645Z,7.36
2022-11-14T11:48:38.277Z,7.19
2022-11-14T11:51:27.136Z,7.21
2022-11-14T11:54:22.806Z,7.31
2022-11-14T11:57:20.088Z,7.35
2022-11-14T12:00:22.011Z,7.37
2022-11-14T12:03:14.188Z,7.33
2022-11-14T12:06:24.858Z,7.35
2022-11-14T12:09:48.659Z,7.39
2022-11-14T12:12:44.862Z,7.24
2022-11-14T12:15:55.956Z,7.34
2022-11-14T12:19:03.078Z,7.29
2022-11-14T12:21:59.077Z,7.26
2022-11-14T12:25:06.195Z,7.18
2022-11-14T12:28:08.621Z,7.16
2022-11-14T12:30:59.938Z,7.06
2022-11-14T12:34:01.117Z,7.05
2022-11-14T12:36:47.245Z,7.01
2022-11-14T12:39:33.230Z,6.90
2022-11-14T12:42:21.329Z,6.93
2022-11-14T12:45:42.030Z,6.97
2022-11-14T12:48:27.330Z,6.95
2022-11-14T12:51:30.321Z,6.94
2022-11-14T12:54:43.704Z,6.84
2022-11-14T12:58:19.096Z,6.76
2022-11-14T13:01:11.112Z,6.81
2022-11-14T13:04:23.851Z,6.87
2022-11-14T13:07:39.062Z,6.85
2022-11-14T13:10:30.660Z,6.93
2022-11-14T13:13:35.842Z,6.97
2022-11-14T13:16:50.783Z,7.00
2022-11-14T13:20:04.593Z,7.03
2022-11-14T13:22:50.030Z,6.97
2022-11-14T13:25:35.548Z,6.87
2022-11-14T13:28:38.667Z,6.79
2022-11-14T13:31:36.262Z,6.88
2022-11-14T13:34:45.320Z,6.88
2022-11-14T13:37:42.793Z,6.78
2022-11-14T13:40:38.264Z,6.71
2022-11-14T13:43:44.099Z,6.60
2022-11-14T13:46:55.045Z,6.64
2022-11-14T13:50:00.245Z,6.56
2022-11-14T13:52:48.772Z,6.48
2022-11-14T13:55:52.703Z,6.54
2022-11-14T13:59:22.571Z,6.36
2022-11-14T14:02:11.097Z,6.42
2022-11-14T14:05:11.157Z,6.42
2022-11-14T14:08:53.584Z,6.35
2022-11-14T14:11:57.216Z,6.36
2022-11-14T14:14:51.264Z,6.37
2022-11-14T14:17:43.458Z,6.34
2022-11-14T14:20:36.840Z,6.36
2022-11-14T14:23:31.155Z,6.31
2022-11-14T14:26:44.202Z,6.37
2022-11-14T14:29:56.056Z,6.33
2022-11-14T14:32:41.300Z,6.31
2022-11-14T14:35:31.854Z,6.31
2022-11-14T14:38:26.236Z,6.27
2022-11-14T14:41:14.529Z,6.18
2022-11-14T14:44:00.386Z,6.19
2022-11-14T14:46:45.501Z,6.19
2022-11-14T14:49:39.407Z,6.20
2022-11-14T14:52:34.464Z,6.20
2022-11-14T14:55:26.253Z,6.24
2022-11-14T14:58:23.721Z,6.24
2022-11-14T15:01:15.245Z,6.17
2022-11-14T15:04:09.138Z,6.20
2022-11-14T15:06:57.449Z,6.06
2022-11-14T15:10:01.764Z,6.02
2022-11-14T15:12:47.963Z,5.97
2022-11-14T15:15:34.650Z,5.98
2022-11-14T15:18:31.846Z,5.97
2022-11-14T15:21:20.837Z,5.99
2022-11-14T15:24:23.224Z,5.93
2022-11-14T15:27:20.487Z,5.87
2022-11-14T15:30:19.529Z,5.84
2022-11-14T15:33:25.045Z,5.72
2022-11-14T15:36:13.817Z,5.70
2022-11-14T15:39:24.689Z,5.71
2022-11-14T15:42:21.469Z,5.73
2022-11-14T15:45:28.752Z,5.72
2022-11-14T15:48:18.982Z,5.71
2022-11-14T15:51:04.581Z,5.73
2022-11-14T15:53:52.125Z,5.76
2022-11-14T15:56:37.460Z,5.75
2022-11-14T15:59:23.203Z,5.77
2022-11-14T16:02:58.523Z,5.81
2022-11-14T16:05:46.104Z,5.82
2022-11-14T16:08:31.784Z,5.82
2022-11-14T16:11:17.300Z,5.83
2022-11-14T16:14:02.643Z,5.83
2022-11-14T16:16:47.949Z,5.73
2022-11-14T16:19:33.141Z,5.65
2022-11-14T16:22:18.785Z,5.61
2022-11-14T16:25:04.823Z,5.65
2022-11-14T16:27:50.396Z,5.67
2022-11-14T16:30:35.721Z,5.59
2022-11-14T16:33:20.901Z,5.61
2022-11-14T16:36:06.672Z,5.63
2022-11-14T16:38:52.658Z,5.71
2022-11-14T16:41:38.925Z,5.76
2022-11-14T16:44:24.895Z,5.76
2022-11-14T16:47:14.709Z,5.70
2022-11-14T16:50:01.485Z,5.66
2022-11-14T16:52:46.980Z,5.65
2022-11-14T16:55:32.652Z,5.56
2022-11-14T16:58:18.101Z,5.50
2022-11-14T17:01:03.521Z,5.48
2022-11-14T17:03:49.374Z,5.51
2022-11-14T17:06:34.777Z,5.48
2022-11-14T17:09:20.029Z,5.44
2022-11-14T17:12:06.191Z,5.51
2022-11-14T17:14:51.483Z,5.34
2022-11-14T17:17:37.106Z,5.34
2022-11-14T17:20:22.232Z,5.25
2022-11-14T17:23:07.766Z,5.19
2022-11-14T17:25:53.790Z,5.24
2022-11-14T17:28:40.565Z,5.25
2022-11-14T17:31:26.188Z,5.22
2022-11-14T17:34:11.437Z,5.13
2022-11-14T17:36:56.979Z,5.20
2022-11-14T17:39:42.355Z,5.12
2022-11-14T17:42:28.053Z,5.11
2022-11-14T17:45:13.520Z,5.05
2022-11-14T17:47:59.453Z,5.06
2022-11-14T17:50:44.949Z,5.02
2022-11-14T17:53:32.555Z,5.03
2022-11-14T17:56:23.861Z,5.04
2022-11-14T17:59:09.532Z,5.04
2022-11-14T18:01:59.825Z,5.04
2022-11-14T18:04:46.431Z,5.02
2022-11-14T18:07:33.250Z,5.02
2022-11-14T18:10:18.674Z,5.03
2022-11-14T18:13:05.329Z,5.04
2022-11-14T18:15:50.605Z,5.03
2022-11-14T18:18:37.364Z,5.14
2022-11-14T18:21:24.876Z,5.16
2022-11-14T18:24:12.364Z,5.19
2022-11-14T18:26:59.182Z,5.14
2022-11-14T18:29:44.659Z,5.15
2022-11-14T18:32:30.224Z,5.17
2022-11-14T18:35:15.778Z,5.18
2022-11-14T18:38:01.388Z,5.12
2022-11-14T18:40:47.060Z,5.09
2022-11-14T18:43:33.458Z,5.10
2022-11-14T18:46:21.752Z,5.05
2022-11-14T18:49:07.125Z,5.12
2022-11-14T18:51:52.317Z,4.97
2022-11-14T18:54:38.117Z,4.90
2022-11-14T18:57:23.584Z,4.94
2022-11-14T19:00:09.813Z,4.95
2022-11-14T19:02:54.929Z,4.95
2022-11-14T19:05:40.616Z,5.02
2022-11-14T19:08:26.132Z,5.04
2022-11-14T19:11:33.931Z,5.06
2022-11-14T19:14:20.723Z,5.02
2022-11-14T19:17:07.271Z,5.02
2022-11-14T19:19:55.828Z,5.00
2022-11-14T19:22:41.411Z,4.93
2022-11-14T19:25:27.290Z,4.92
2022-11-14T19:28:12.788Z,4.89
2022-11-14T19:31:02.854Z,4.86
2022-11-14T19:33:48.438Z,4.89
2022-11-14T19:39:39.850Z,4.92
2022-11-14T19:42:25.313Z,4.90
2022-11-14T19:45:11.028Z,4.96
2022-11-14T19:47:56.496Z,4.94
2022-11-14T19:50:41.933Z,4.95
2022-11-14T19:53:27.594Z,4.97
2022-11-14T19:56:18.037Z,4.89
2022-11-14T19:59:09.609Z,4.88
2022-11-14T20:01:56.426Z,4.85
2022-11-14T20:04:43.673Z,4.86
2022-11-14T20:07:30.438Z,4.85
2022-11-14T20:10:16.090Z,4.84
2022-11-14T20:13:01.549Z,4.87
2022-11-14T20:15:47.218Z,4.85
2022-11-14T20:18:32.653Z,4.84
2022-11-14T20:21:21.394Z,4.83
2022-11-14T20:24:06.958Z,4.80
2022-11-14T20:26:52.717Z,4.81
2022-11-14T20:29:38.298Z,4.76
2022-11-14T20:32:24.025Z,4.83
2022-11-14T20:35:09.484Z,4.78
2022-11-14T20:37:55.063Z,4.75
2022-11-14T20:40:40.477Z,4.76
2022-11-14T20:43:25.809Z,4.77
2022-11-14T20:46:16.554Z,4.81
2022-11-14T20:49:04.342Z,4.83
2022-11-14T20:51:49.833Z,4.78
2022-11-14T20:54:35.233Z,4.83
2022-11-14T20:57:21.079Z,4.83
2022-11-14T21:00:07.990Z,4.86
2022-11-14T21:02:53.808Z,4.81
2022-11-14T21:05:39.951Z,4.81
2022-11-14T21:08:25.665Z,4.84
2022-11-14T21:11:18.157Z,4.83
2022-11-14T21:14:04.723Z,4.83
2022-11-14T21:16:50.139Z,4.82
2022-11-14T21:19:35.528Z,4.91
2022-11-14T21:22:21.100Z,4.95
2022-11-14T21:25:06.852Z,4.96
2022-11-14T21:27:52.238Z,4.85
2022-11-14T21:30:37.618Z,4.77
2022-11-14T21:33:23.371Z,4.75
2022-11-14T21:36:30.115Z,4.77
2022-11-14T21:39:16.848Z,4.74
2022-11-14T21:42:03.161Z,4.76
2022-11-14T21:44:48.409Z,4.71
2022-11-14T21:47:34.522Z,4.71
2022-11-14T21:50:19.955Z,4.72
2022-11-14T21:53:16.023Z,4.72
2022-11-14T21:56:18.596Z,4.69
2022-11-14T21:59:13.902Z,4.69
2022-11-14T22:02:18.580Z,4.68
2022-11-14T22:05:04.071Z,4.70
2022-11-14T22:07:49.715Z,4.69
2022-11-14T22:10:35.318Z,4.69
2022-11-14T22:13:20.753Z,4.66
2022-11-14T22:16:07.344Z,4.66
2022-11-14T22:18:53.687Z,4.63
2022-11-14T22:21:39.029Z,4.67
2022-11-14T22:24:24.241Z,4.71
2022-11-14T22:27:10.019Z,4.67
2022-11-14T22:29:55.737Z,4.66
2022-11-14T22:32:41.032Z,4.63
2022-11-14T22:35:26.308Z,4.65
2022-11-14T22:38:11.758Z,4.61
2022-11-14T22:40:58.403Z,4.67
2022-11-14T22:43:43.877Z,4.70
2022-11-14T22:46:29.393Z,4.66
2022-11-14T22:49:19.692Z,4.61
2022-11-14T22:52:06.288Z,4.59
2022-11-14T22:54:51.724Z,4.63
2022-11-14T22:57:37.028Z,4.57
2022-11-14T23:00:22.397Z,4.53
2022-11-14T23:03:07.809Z,4.58
2022-11-14T23:05:53.404Z,4.55
2022-11-14T23:08:39.660Z,4.52
2022-11-14T23:11:27.208Z,4.50
2022-11-14T23:14:14.328Z,4.48
2022-11-14T23:16:59.824Z,4.48
2022-11-14T23:19:45.030Z,4.48
2022-11-14T23:22:30.418Z,4.50
2022-11-14T23:25:16.209Z,4.48
2022-11-14T23:28:01.737Z,4.46
2022-11-14T23:30:47.375Z,4.50
2022-11-14T23:33:33.384Z,4.48
2022-11-14T23:36:19.352Z,4.46
2022-11-14T23:39:04.834Z,4.47
2022-11-14T23:41:50.075Z,4.45
2022-11-14T23:44:35.504Z,4.47
2022-11-14T23:47:21.136Z,4.45
2022-11-14T23:50:06.767Z,4.46
2022-11-14T23:52:52.184Z,4.46
2022-11-14T23:55:38.367Z,4.43
2022-11-14T23:58:25.748Z,4.47
